Huvudsida
METAR-TAF:

METAR-TAF

Flygplatser :

Koror, Babeldaob, Palau

latitud: 07-22N, longitud: 134-32E, höjd: 54 m

Aktuellt väderrapport

Denna rapport gjordes för 1 timme och 12 minuter sedan, klockan 23:50 UTC
Vind 8 kt från ost
Temperatur 27°C
Fuktighet 89%
Tryck 1008 hPa
Sikt: 24.1 km
Spridda moln på en höjd av 1600 ft, Cumulonimbus.
Brutna moln på en höjd av 12000 ft
Brutna moln på en höjd av 30000 ft

METAR: PTRO 192350Z 08008KT 15SM SCT016CB BKN120 BKN300 27/25 A2978 RMK CB ALQDS MOV W

Tid: 10:02 (01:02 UTC)

Väderprognos

Denna rapport gjordes för 1 timme och 34 minuter sedan, klockan 23:28 UTC
Prognos gäller från 20 kl. 00 UTC till 20 kl. 24 UTC
Vind 7 kt från ost
Sikt: 10 km
Spridda moln på en höjd av 1600 ft
Brutna moln på en höjd av 12000 ft
skurar i närheten
Temporärt
från 20 kl. 00 UTC till 20 kl. 02 UTC
Brutna moln på en höjd av 1600 ft
Mulet på en höjd av 3000 ft
lätta regnskurar

TAF: PTRO 192328Z 2000/2024 08007KT P6SM VCSH SCT016 BKN120 TEMPO 2000/2002 -SHRA BKN016 OVC030

Aktuella väderrapporter och prognoser från 4000 flygplatser (METAR- och TAF-rapporter).

De tillgängliga stationerna syns som gula och röda prickar på kartan.

För musen över prickarna för att se namnen på stationerna.

Klicka sedan för att få väderrapporter och prognoser.

För att ändra kartan: Klicka på de gröna knapparna med ett svart kors på för att zooma in; den gröna knappen med ett streck på för att zooma ut; eller på de gröna pilarna för angränsande kartor.


METAR-TAF: